createdAt,value
2018-03-15T00:02:01.272Z,126.00
2018-03-15T00:04:35.591Z,130.80
2018-03-15T00:07:04.757Z,123.00
2018-03-15T00:09:34.418Z,126.80
2018-03-15T00:12:03.843Z,123.80
2018-03-15T00:14:33.219Z,127.80
2018-03-15T00:17:02.649Z,127.00
2018-03-15T00:19:32.611Z,122.60
2018-03-15T00:22:02.198Z,126.20
2018-03-15T00:24:31.117Z,124.20
2018-03-15T00:27:00.271Z,126.60
2018-03-15T00:29:30.049Z,121.60
2018-03-15T00:31:59.260Z,120.00
2018-03-15T00:34:28.882Z,120.40
2018-03-15T00:36:58.140Z,125.80
2018-03-15T00:39:27.403Z,132.20
2018-03-15T00:41:56.839Z,126.40
2018-03-15T00:44:26.476Z,110.80
2018-03-15T00:46:55.710Z,128.40
2018-03-15T00:49:24.939Z,120.80
2018-03-15T00:51:54.129Z,113.80
2018-03-15T00:54:25.455Z,121.40
2018-03-15T00:56:54.879Z,131.80
2018-03-15T00:59:24.301Z,128.20
2018-03-15T01:01:53.521Z,123.80
2018-03-15T01:04:23.047Z,124.00
2018-03-15T01:06:52.439Z,130.40
2018-03-15T01:09:21.586Z,126.60
2018-03-15T01:11:50.782Z,116.00
2018-03-15T01:14:19.818Z,102.00
2018-03-15T01:16:49.623Z,113.20
2018-03-15T01:19:19.168Z,127.00
2018-03-15T01:21:48.451Z,114.80
2018-03-15T01:24:17.572Z,123.60
2018-03-15T01:26:48.594Z,126.60
2018-03-15T01:29:17.951Z,128.20
2018-03-15T01:31:47.395Z,129.20
2018-03-15T01:34:16.699Z,131.20
2018-03-15T01:36:45.967Z,129.20
2018-03-15T01:39:15.542Z,119.80
2018-03-15T01:41:44.764Z,125.80
2018-03-15T01:44:14.106Z,125.20
2018-03-15T01:46:43.444Z,117.00
2018-03-15T01:49:12.550Z,123.80
2018-03-15T01:51:41.498Z,122.00
2018-03-15T01:54:10.617Z,116.20
2018-03-15T01:56:39.654Z,122.20
2018-03-15T01:59:09.026Z,121.00
2018-03-15T02:01:38.483Z,140.00
2018-03-15T02:04:07.561Z,147.60
2018-03-15T02:06:36.787Z,154.80
2018-03-15T02:09:06.558Z,147.80
2018-03-15T02:11:35.867Z,146.60
2018-03-15T02:14:05.147Z,143.00
2018-03-15T02:16:34.628Z,136.60
2018-03-15T02:19:04.847Z,133.20
2018-03-15T02:21:33.737Z,136.40
2018-03-15T02:24:03.051Z,135.80
2018-03-15T02:26:32.493Z,127.20
2018-03-15T02:29:02.004Z,137.00
2018-03-15T02:33:54.002Z,140.60
2018-03-15T02:36:23.757Z,147.80
2018-03-15T02:38:53.075Z,131.80
2018-03-15T02:41:22.271Z,131.20
2018-03-15T02:43:51.360Z,125.80
2018-03-15T02:46:20.912Z,127.00
2018-03-15T02:48:50.511Z,126.80
2018-03-15T02:51:20.320Z,137.80
2018-03-15T02:53:49.791Z,131.40
2018-03-15T02:56:19.041Z,149.80
2018-03-15T02:58:48.342Z,141.60
2018-03-15T03:01:18.171Z,151.00
2018-03-15T03:03:47.523Z,147.20
2018-03-15T03:06:16.954Z,139.20
2018-03-15T03:08:46.349Z,145.20
2018-03-15T03:11:15.605Z,129.20
2018-03-15T03:13:44.970Z,94.40
2018-03-15T03:16:14.328Z,81.60
2018-03-15T03:18:43.473Z,75.60
2018-03-15T03:21:12.663Z,77.80
2018-03-15T03:23:41.984Z,73.00
2018-03-15T03:26:10.840Z,74.60
2018-03-15T03:28:40.162Z,81.20
2018-03-15T03:31:10.638Z,72.40
2018-03-15T03:33:39.679Z,65.60
2018-03-15T03:36:09.049Z,65.60
2018-03-15T03:38:38.366Z,70.00
2018-03-15T03:41:07.545Z,67.20
2018-03-15T03:43:36.472Z,65.20
2018-03-15T03:46:06.030Z,64.20
2018-03-15T03:48:35.138Z,56.60
2018-03-15T03:51:04.162Z,59.00
2018-03-15T03:53:33.281Z,58.40
2018-03-15T03:56:02.190Z,56.40
2018-03-15T03:58:31.112Z,59.20
2018-03-15T04:01:00.283Z,54.60
2018-03-15T04:03:29.859Z,52.40
2018-03-15T04:05:59.482Z,52.40
2018-03-15T04:08:28.549Z,51.20
2018-03-15T04:10:57.835Z,52.80
2018-03-15T04:13:27.359Z,52.00
2018-03-15T04:15:57.341Z,53.00
2018-03-15T04:18:26.953Z,56.40
2018-03-15T04:20:56.144Z,52.20
2018-03-15T04:23:25.457Z,58.00
2018-03-15T04:25:54.953Z,60.00
2018-03-15T04:28:24.203Z,55.80
2018-03-15T04:30:53.248Z,52.40
2018-03-15T04:33:23.299Z,50.40
2018-03-15T04:35:52.702Z,47.20
2018-03-15T04:38:22.216Z,44.60
2018-03-15T04:40:51.585Z,47.20
2018-03-15T04:43:20.912Z,47.80
2018-03-15T04:45:50.057Z,48.00
2018-03-15T04:48:19.170Z,45.20
2018-03-15T04:50:48.680Z,46.20
2018-03-15T04:53:17.990Z,48.80
2018-03-15T04:55:47.170Z,47.20
2018-03-15T04:58:16.641Z,46.40
2018-03-15T05:00:46.049Z,48.40
2018-03-15T05:03:15.203Z,47.20
2018-03-15T05:05:44.481Z,51.00
2018-03-15T05:08:14.038Z,40.80
2018-03-15T05:10:43.232Z,47.20
2018-03-15T05:13:12.717Z,39.60
2018-03-15T05:15:41.930Z,38.00
2018-03-15T05:18:11.304Z,38.00
2018-03-15T05:20:40.580Z,38.00
2018-03-15T05:23:09.877Z,36.20
2018-03-15T05:25:39.176Z,32.40
2018-03-15T05:28:08.516Z,36.00
2018-03-15T05:30:37.681Z,29.80
2018-03-15T05:33:07.092Z,28.20
2018-03-15T05:35:36.650Z,33.40
2018-03-15T05:38:05.819Z,35.40
2018-03-15T05:40:35.190Z,31.20
2018-03-15T05:43:04.691Z,29.80
2018-03-15T05:45:33.938Z,29.00
2018-03-15T05:48:03.287Z,33.80
2018-03-15T05:50:33.018Z,32.40
2018-03-15T05:53:02.076Z,37.00
2018-03-15T05:55:31.066Z,35.00
2018-03-15T05:58:00.278Z,33.40
2018-03-15T06:00:29.810Z,33.00
2018-03-15T06:02:59.123Z,31.80
2018-03-15T06:05:28.709Z,29.00
2018-03-15T06:07:58.110Z,26.40
2018-03-15T06:10:27.491Z,30.00
2018-03-15T06:12:56.834Z,28.20
2018-03-15T06:15:26.307Z,29.40
2018-03-15T06:17:55.420Z,32.20
2018-03-15T06:20:24.493Z,36.40
2018-03-15T06:22:53.709Z,26.20
2018-03-15T06:25:23.128Z,28.80
2018-03-15T06:27:52.311Z,30.20
2018-03-15T07:03:53.901Z,21.60
2018-03-15T07:06:23.059Z,24.40
2018-03-15T07:08:52.079Z,23.20
2018-03-15T07:11:21.028Z,25.40
2018-03-15T07:13:49.924Z,24.00
2018-03-15T07:16:19.274Z,27.40
2018-03-15T07:18:48.273Z,23.80
2018-03-15T07:21:17.146Z,22.60
2018-03-15T07:23:46.327Z,26.60
2018-03-15T07:26:15.833Z,28.40
2018-03-15T07:28:45.294Z,25.40
2018-03-15T07:31:14.965Z,24.00
2018-03-15T07:33:44.257Z,26.80
2018-03-15T07:36:13.471Z,20.40
2018-03-15T07:38:42.297Z,24.60
2018-03-15T07:41:11.848Z,26.40
2018-03-15T07:43:41.064Z,20.60
2018-03-15T07:46:10.103Z,24.00
2018-03-15T07:48:39.193Z,24.80
2018-03-15T07:51:08.210Z,24.60
2018-03-15T07:53:37.312Z,34.60
2018-03-15T07:56:06.618Z,37.80
2018-03-15T07:58:35.656Z,32.40
2018-03-15T08:01:04.673Z,22.60
2018-03-15T08:03:34.092Z,26.60
2018-03-15T08:06:03.133Z,23.80
2018-03-15T08:08:32.203Z,25.80
2018-03-15T08:11:01.196Z,24.40
2018-03-15T08:13:30.194Z,24.60
2018-03-15T08:15:59.188Z,27.20
2018-03-15T08:18:28.247Z,23.60
2018-03-15T08:20:57.822Z,21.20
2018-03-15T08:23:26.832Z,22.20
2018-03-15T08:25:55.948Z,20.20
2018-03-15T08:28:25.488Z,18.80
2018-03-15T08:30:54.795Z,23.20
2018-03-15T08:33:24.048Z,19.20
2018-03-15T08:35:53.200Z,24.00
2018-03-15T08:38:23.238Z,18.80
2018-03-15T08:40:52.179Z,18.80
2018-03-15T08:43:21.156Z,22.00
2018-03-15T08:45:50.616Z,23.40
2018-03-15T08:48:19.697Z,17.80
2018-03-15T08:50:49.295Z,20.60
2018-03-15T08:53:18.642Z,17.80
2018-03-15T08:55:48.176Z,23.00
2018-03-15T08:58:17.289Z,23.60
2018-03-15T09:00:46.689Z,19.60
2018-03-15T09:03:16.235Z,17.80
2018-03-15T09:05:45.368Z,17.00
2018-03-15T09:08:14.848Z,19.80
2018-03-15T09:10:44.274Z,16.40
2018-03-15T09:13:13.107Z,18.20
2018-03-15T09:15:42.499Z,16.80
2018-03-15T09:18:11.398Z,16.20
2018-03-15T09:20:40.789Z,17.80
2018-03-15T09:23:09.923Z,15.80
2018-03-15T09:25:38.846Z,15.60
2018-03-15T09:28:08.140Z,18.20
2018-03-15T09:30:37.212Z,17.20
2018-03-15T09:33:07.384Z,17.40
2018-03-15T09:35:36.364Z,11.20
2018-03-15T09:38:05.438Z,16.80
2018-03-15T09:40:34.994Z,13.20
2018-03-15T09:43:04.736Z,18.60
2018-03-15T09:45:33.787Z,18.20
2018-03-15T09:48:03.039Z,17.00
2018-03-15T09:50:32.071Z,4.40
2018-03-15T09:53:01.327Z,15.40
2018-03-15T09:55:30.653Z,17.80
2018-03-15T09:57:59.977Z,17.40
2018-03-15T10:00:29.714Z,20.00
2018-03-15T10:02:59.427Z,22.40
2018-03-15T10:05:29.060Z,20.20
2018-03-15T10:07:59.287Z,22.80
2018-03-15T10:10:28.470Z,20.60
2018-03-15T10:12:58.508Z,15.00
2018-03-15T10:15:27.901Z,16.40
2018-03-15T10:17:57.798Z,14.60
2018-03-15T10:20:26.653Z,15.80
2018-03-15T10:22:56.374Z,20.00
2018-03-15T10:25:26.397Z,19.00
2018-03-15T10:27:55.382Z,12.80
2018-03-15T10:30:24.416Z,17.20
2018-03-15T10:32:59.370Z,20.60
2018-03-15T10:35:29.549Z,19.80
2018-03-15T10:37:59.611Z,17.80
2018-03-15T10:40:29.077Z,19.40
2018-03-15T10:42:59.534Z,20.40
2018-03-15T10:45:31.166Z,19.20
2018-03-15T10:48:02.779Z,16.40
2018-03-15T10:50:32.278Z,18.00
2018-03-15T10:53:01.011Z,14.00
2018-03-15T10:55:30.243Z,17.60
2018-03-15T10:57:59.554Z,18.00
2018-03-15T11:03:34.363Z,19.20
2018-03-15T11:06:08.939Z,16.80
2018-03-15T11:08:38.205Z,20.20
2018-03-15T11:11:07.589Z,18.40
2018-03-15T11:13:36.806Z,17.00
2018-03-15T11:16:06.043Z,18.80
2018-03-15T11:18:36.420Z,20.00
2018-03-15T11:21:05.744Z,16.80
2018-03-15T11:23:34.834Z,17.80
2018-03-15T11:26:04.272Z,17.20
2018-03-15T11:28:33.442Z,19.20
2018-03-15T11:31:02.650Z,18.80
2018-03-15T11:33:31.768Z,16.00
2018-03-15T11:36:01.104Z,21.60
2018-03-15T11:38:30.357Z,20.80
2018-03-15T11:40:59.568Z,18.60
2018-03-15T11:43:28.918Z,19.00
2018-03-15T11:45:58.276Z,17.00
2018-03-15T11:48:27.292Z,17.20
2018-03-15T11:50:56.788Z,18.00
2018-03-15T11:53:25.785Z,19.00
2018-03-15T11:55:54.972Z,19.80
2018-03-15T11:58:24.151Z,18.40
2018-03-15T12:00:53.510Z,21.00
2018-03-15T12:03:22.714Z,25.40
2018-03-15T12:05:51.866Z,21.00
2018-03-15T12:08:21.252Z,19.80
2018-03-15T12:10:50.522Z,17.20
2018-03-15T12:13:19.558Z,19.80
2018-03-15T12:15:49.023Z,19.60
2018-03-15T12:18:18.130Z,14.40
2018-03-15T12:20:47.419Z,19.80
2018-03-15T12:23:16.555Z,19.20
2018-03-15T12:25:45.757Z,17.60
2018-03-15T12:28:15.259Z,18.00
2018-03-15T12:30:45.300Z,19.20
2018-03-15T12:33:14.544Z,19.20
2018-03-15T12:35:43.861Z,22.20
2018-03-15T12:38:13.462Z,18.60
2018-03-15T12:40:42.281Z,20.80
2018-03-15T12:43:11.816Z,21.00
2018-03-15T12:45:40.920Z,19.20
2018-03-15T12:48:10.001Z,20.60
2018-03-15T12:50:39.196Z,20.60
2018-03-15T12:53:08.470Z,21.00
2018-03-15T12:55:37.824Z,24.40
2018-03-15T12:58:06.829Z,21.80
2018-03-15T13:00:36.209Z,21.20
2018-03-15T13:03:05.530Z,24.60
2018-03-15T13:05:34.694Z,28.20
2018-03-15T13:08:04.493Z,26.80
2018-03-15T13:10:33.504Z,22.00
2018-03-15T13:13:02.655Z,31.00
2018-03-15T13:15:31.708Z,29.40
2018-03-15T13:18:00.926Z,29.60
2018-03-15T13:20:30.016Z,29.60
2018-03-15T13:22:59.232Z,34.20
2018-03-15T13:25:28.896Z,31.20
2018-03-15T13:27:58.272Z,36.60
2018-03-15T13:30:27.250Z,34.20
2018-03-15T13:32:56.788Z,45.80
2018-03-15T13:35:25.787Z,35.40
2018-03-15T13:37:55.175Z,42.80
2018-03-15T13:40:24.281Z,41.80
2018-03-15T13:42:53.762Z,43.20
2018-03-15T13:45:22.954Z,49.20
2018-03-15T13:47:52.160Z,49.60
2018-03-15T13:50:21.554Z,49.60
2018-03-15T13:52:50.969Z,48.60
2018-03-15T13:55:20.329Z,57.80
2018-03-15T13:57:49.241Z,48.80
2018-03-15T14:00:18.501Z,47.40
2018-03-15T14:02:47.945Z,52.80
2018-03-15T14:05:17.405Z,53.20
2018-03-15T14:07:46.753Z,120.40
2018-03-15T14:10:16.416Z,145.60
2018-03-15T14:12:45.802Z,101.60
2018-03-15T14:15:15.222Z,77.00
2018-03-15T14:17:44.359Z,65.20
2018-03-15T14:20:13.587Z,59.60
2018-03-15T14:22:42.429Z,56.40
2018-03-15T14:25:11.384Z,57.80
2018-03-15T14:27:40.528Z,53.40
2018-03-15T14:30:09.845Z,58.80
2018-03-15T14:32:39.262Z,57.60
2018-03-15T14:35:08.959Z,55.80
2018-03-15T14:37:38.287Z,56.20
2018-03-15T14:40:07.677Z,56.80
2018-03-15T14:42:36.992Z,58.40
2018-03-15T14:45:06.313Z,62.60
2018-03-15T14:47:35.442Z,62.20
2018-03-15T14:50:04.526Z,62.60
2018-03-15T14:52:33.965Z,67.20
2018-03-15T14:55:03.008Z,65.60
2018-03-15T14:57:32.310Z,63.40
2018-03-15T15:00:01.225Z,62.80
2018-03-15T15:02:30.320Z,61.20
2018-03-15T15:04:59.813Z,66.20
2018-03-15T15:07:28.945Z,65.00
2018-03-15T15:09:58.063Z,62.60
2018-03-15T15:12:27.550Z,64.80
2018-03-15T15:14:56.769Z,65.40
2018-03-15T15:17:25.958Z,62.00
2018-03-15T15:19:55.283Z,66.60
2018-03-15T15:22:24.404Z,63.40
2018-03-15T15:24:53.765Z,67.40
2018-03-15T15:27:23.150Z,62.40
2018-03-15T15:29:52.286Z,67.20
2018-03-15T15:32:21.255Z,69.60
2018-03-15T15:34:50.850Z,63.00
2018-03-15T15:37:20.207Z,65.80
2018-03-15T15:39:49.643Z,64.20
2018-03-15T15:42:18.909Z,65.20
2018-03-15T15:44:47.945Z,74.60
2018-03-15T15:47:17.031Z,67.60
2018-03-15T15:49:46.736Z,72.40
2018-03-15T15:52:15.922Z,73.00
2018-03-15T15:54:45.712Z,77.40
2018-03-15T15:57:15.000Z,75.20
2018-03-15T15:59:44.241Z,75.60
2018-03-15T16:02:13.483Z,78.00
2018-03-15T16:04:42.409Z,78.00
2018-03-15T16:07:11.691Z,77.20
2018-03-15T16:09:41.082Z,74.80
2018-03-15T16:12:10.441Z,80.80
2018-03-15T16:14:40.112Z,77.00
2018-03-15T16:19:25.675Z,80.60
2018-03-15T16:24:19.357Z,89.80
2018-03-15T16:29:18.002Z,84.20
2018-03-15T16:31:47.269Z,91.60
2018-03-15T16:34:16.473Z,102.40
2018-03-15T16:36:46.280Z,96.80
2018-03-15T16:39:15.281Z,106.60
2018-03-15T16:41:44.376Z,104.60
2018-03-15T16:44:13.937Z,88.60
2018-03-15T16:46:43.145Z,100.40
2018-03-15T16:49:12.469Z,104.80
2018-03-15T16:51:41.860Z,95.40
2018-03-15T16:54:10.969Z,90.60
2018-03-15T16:56:41.999Z,95.40
2018-03-15T16:59:11.552Z,95.40
2018-03-15T17:01:40.929Z,93.20
2018-03-15T17:04:10.054Z,92.20
2018-03-15T17:06:39.140Z,93.60
2018-03-15T17:09:08.780Z,93.40
2018-03-15T17:11:37.931Z,90.80
2018-03-15T17:16:23.985Z,88.00
2018-03-15T17:18:53.047Z,126.80
2018-03-15T17:21:22.720Z,116.40
2018-03-15T17:23:52.164Z,120.00
2018-03-15T17:26:21.978Z,122.00
2018-03-15T17:28:51.999Z,108.00
2018-03-15T17:31:21.934Z,104.40
2018-03-15T17:33:52.203Z,104.60
2018-03-15T17:36:22.179Z,111.80
2018-03-15T17:38:51.516Z,104.00
2018-03-15T17:41:22.153Z,105.00
2018-03-15T17:43:51.905Z,108.40
2018-03-15T17:46:21.268Z,111.20
2018-03-15T17:48:50.864Z,109.40
2018-03-15T17:51:20.826Z,113.40
2018-03-15T17:53:49.993Z,112.00
2018-03-15T17:56:19.648Z,109.80
2018-03-15T17:58:48.866Z,112.20
2018-03-15T18:01:18.034Z,113.20
2018-03-15T18:03:47.413Z,107.40
2018-03-15T18:06:16.744Z,118.40
2018-03-15T18:08:46.394Z,104.80
2018-03-15T18:11:15.948Z,110.00
2018-03-15T18:13:45.103Z,108.00
2018-03-15T18:16:14.095Z,108.40
2018-03-15T18:18:43.255Z,101.20
2018-03-15T18:21:12.634Z,99.80
2018-03-15T18:23:41.709Z,94.60
2018-03-15T18:26:11.070Z,107.00
2018-03-15T18:28:40.412Z,107.40
2018-03-15T18:31:09.791Z,104.25
2018-03-15T18:33:39.196Z,101.00
2018-03-15T18:36:08.441Z,104.20
2018-03-15T18:38:37.993Z,102.60
2018-03-15T18:41:07.391Z,107.40
2018-03-15T18:43:36.529Z,104.80
2018-03-15T18:46:06.716Z,104.20
2018-03-15T18:48:35.864Z,97.60
2018-03-15T18:51:05.174Z,101.40
2018-03-15T18:53:34.490Z,93.00
2018-03-15T18:56:04.047Z,100.80
2018-03-15T18:58:33.113Z,96.80
2018-03-15T19:01:02.076Z,98.20
2018-03-15T19:03:32.220Z,95.80
2018-03-15T19:06:01.358Z,97.80
2018-03-15T19:08:31.888Z,97.80
2018-03-15T19:11:00.916Z,91.80
2018-03-15T19:13:29.805Z,96.00
2018-03-15T19:15:58.967Z,96.80
2018-03-15T19:18:28.405Z,99.00
2018-03-15T19:20:57.827Z,90.00
2018-03-15T19:23:27.366Z,86.00
2018-03-15T19:25:56.398Z,88.60
2018-03-15T19:28:25.646Z,87.20
2018-03-15T19:30:54.774Z,96.00
2018-03-15T19:33:24.333Z,84.00
2018-03-15T19:35:53.906Z,89.40
2018-03-15T19:38:23.129Z,91.60
2018-03-15T19:40:52.283Z,91.80
2018-03-15T19:43:21.424Z,86.80
2018-03-15T19:45:50.795Z,91.80
2018-03-15T19:48:20.041Z,88.40
2018-03-15T19:50:49.290Z,92.40
2018-03-15T19:53:18.566Z,89.20
2018-03-15T19:55:48.052Z,89.00
2018-03-15T19:58:17.495Z,87.40
2018-03-15T20:00:46.669Z,83.20
2018-03-15T20:03:15.616Z,89.00
2018-03-15T20:05:44.466Z,90.60
2018-03-15T20:08:14.080Z,88.40
2018-03-15T20:10:43.520Z,88.60
2018-03-15T20:13:12.856Z,98.60
2018-03-15T20:15:50.171Z,87.80
2018-03-15T20:18:19.369Z,91.00
2018-03-15T20:20:48.375Z,94.00
2018-03-15T20:23:23.193Z,98.60
2018-03-15T20:25:52.373Z,88.20
2018-03-15T20:28:27.514Z,94.60
2018-03-15T20:30:56.657Z,89.40
2018-03-15T20:33:31.514Z,91.20
2018-03-15T20:36:00.592Z,89.00
2018-03-15T20:38:29.767Z,88.60
2018-03-15T20:41:04.508Z,87.40
2018-03-15T20:43:35.038Z,88.20
2018-03-15T20:46:09.835Z,88.20
2018-03-15T20:48:44.491Z,84.00
2018-03-15T20:51:13.821Z,87.80
2018-03-15T20:53:43.832Z,89.00
2018-03-15T20:56:13.243Z,87.00
2018-03-15T20:58:42.355Z,87.60
2018-03-15T21:01:11.810Z,84.00
2018-03-15T21:03:41.118Z,91.80
2018-03-15T21:06:10.320Z,88.60
2018-03-15T21:08:39.722Z,83.60
2018-03-15T21:11:08.863Z,87.00
2018-03-15T21:13:38.053Z,89.00
2018-03-15T21:16:06.795Z,89.20
2018-03-15T21:18:36.188Z,88.20
2018-03-15T21:21:05.232Z,89.40
2018-03-15T21:26:29.259Z,88.80
2018-03-15T21:28:58.606Z,88.00
2018-03-15T21:31:27.910Z,90.80
2018-03-15T21:33:57.189Z,89.60
2018-03-15T21:36:26.245Z,91.80
2018-03-15T21:38:55.672Z,96.40
2018-03-15T21:41:24.935Z,101.40
2018-03-15T21:43:54.289Z,95.40
2018-03-15T21:46:23.699Z,95.40
2018-03-15T21:48:52.937Z,89.20
2018-03-15T21:51:22.060Z,88.80
2018-03-15T21:53:51.267Z,91.40
2018-03-15T21:56:20.655Z,87.60
2018-03-15T21:58:49.792Z,90.60
2018-03-15T22:01:19.067Z,89.20
2018-03-15T22:03:48.284Z,89.00
2018-03-15T22:06:17.673Z,94.00
2018-03-15T22:08:46.857Z,91.80
2018-03-15T22:11:15.975Z,96.20
2018-03-15T22:13:45.201Z,87.00
2018-03-15T22:16:14.479Z,101.80
2018-03-15T22:18:44.734Z,95.80
2018-03-15T22:21:14.168Z,93.80
2018-03-15T22:23:44.511Z,93.40
2018-03-15T22:26:13.734Z,91.40
2018-03-15T22:28:42.934Z,94.40
2018-03-15T22:31:12.546Z,100.40
2018-03-15T22:33:42.008Z,91.40
2018-03-15T22:36:11.193Z,96.00
2018-03-15T22:38:40.733Z,92.80
2018-03-15T22:41:10.031Z,99.40
2018-03-15T22:43:39.172Z,94.00
2018-03-15T22:46:08.818Z,94.20
2018-03-15T22:48:38.296Z,92.20
2018-03-15T22:51:07.263Z,100.00
2018-03-15T22:53:36.968Z,90.40
2018-03-15T22:56:06.263Z,101.80
2018-03-15T22:58:35.441Z,90.80
2018-03-15T23:01:05.260Z,97.20
2018-03-15T23:03:34.330Z,102.60
2018-03-15T23:06:03.753Z,94.60
2018-03-15T23:08:33.118Z,102.60
2018-03-15T23:11:01.943Z,93.00
2018-03-15T23:13:31.301Z,107.20
2018-03-15T23:16:00.389Z,96.00
2018-03-15T23:18:29.534Z,109.60
2018-03-15T23:20:59.375Z,119.40
2018-03-15T23:23:28.787Z,119.00
2018-03-15T23:25:58.169Z,105.00
2018-03-15T23:28:27.449Z,111.60
2018-03-15T23:30:56.808Z,122.20
2018-03-15T23:33:26.014Z,110.20
2018-03-15T23:35:55.421Z,104.00
2018-03-15T23:38:24.912Z,106.40
2018-03-15T23:40:54.170Z,96.60
2018-03-15T23:43:23.452Z,101.60
2018-03-15T23:45:52.922Z,99.60
2018-03-15T23:48:22.402Z,94.20
2018-03-15T23:50:51.771Z,97.60
2018-03-15T23:53:21.204Z,95.80
2018-03-15T23:55:50.453Z,96.00
2018-03-15T23:58:19.786Z,94.80
